sept
11

EMX-125 EN ITALIE : LES QUALIFICATIONS

EMX-125 – Qualifying Race – Classification
Pos Nr Rider Nat. Fed. Bike Time laps Diff. First Diff. Prev. Bestlaptime in lap Speed

1 76 Rauchenecker, Pascal AUT OeAMTC KTM 20:25.417 10 0:00.000 0:00.000 1:59.321 7 49.782
2 99 Ciucci, Dawid ITA FMI KTM 20:29.469 10 0:04.052 0:04.052 2:00.480 7 49.303
3 132 D’Angelo, Alessandro ITA FMI Suzuki 20:31.712 10 0:06.295 0:02.243 2:00.582 3 49.261
4 91 Seewer, Jeremy SUI FMS Suzuki 20:34.429 10 0:09.012 0:02.717 2:00.418 7 49.328
5 951 Aubin, Arnaud FRA FFM Yamaha 20:40.075 10 0:14.658 0:05.646 2:00.227 7 49.407
6 114 Booker, Jordan GBR ACU KTM 20:42.167 10 0:16.750 0:02.092 2:00.828 4 49.161
7 35 Lafont, Yohan FRA FFM Yamaha 20:44.403 10 0:18.986 0:02.236 2:00.468 4 49.308
8 141 Desprey, Maxime FRA FFM Yamaha 20:45.544 10 0:20.127 0:01.141 2:01.114 7 49.045
9 711 Graulus, Damon BEL FMB KTM 20:45.751 10 0:20.334 0:00.207 2:00.869 8 49.144
10 211 Jaulin, Sulivan FRA FFM Yamaha 20:46.136 10 0:20.719 0:00.385 1:59.632 9 49.652
11 43 Moroni, Luca ITA FMI KTM 20:56.599 10 0:31.182 0:10.463 2:02.312 9 48.564
12 142 Paturel, Benoit FRA FFM Yamaha 20:59.846 10 0:34.429 0:03.247 2:01.275 7 48.98
13 23 Bernardini, Samuele ITA FMI KTM 21:05.507 10 0:40.090 0:05.661 2:02.658 9 48.427
14 170 Van Doninck, Brent BEL FMB KTM 21:08.012 10 0:42.595 0:02.505 2:02.256 7 48.587
15 102 Plessers, Mathias BEL FMB KTM 21:10.548 10 0:45.131 0:02.536 2:02.934 7 48.319
16 174 Versluis, Dave NED KNMV KTM 21:14.366 10 0:48.949 0:03.818 2:03.971 6 47.914
17 611 Cociu, Mihail MOL FMR Kawasaki 21:16.379 10 0:50.962 0:02.013 2:03.495 8 48.099
18 44 Muratori, Francesco ITA FMI Suzuki 21:17.039 10 0:51.622 0:00.660 2:02.922 6 48.323
19 78 Ruzzi, Davide ITA FMI KTM 21:27.356 10 1:01.939 0:10.317 2:04.216 7 47.82
20 194 Bakens, Robin BEL FMB Yamaha 21:29.980 10 1:04.563 0:02.624 2:04.846 7 47.579
21 201 Marchelli, Michele ITA FMI KTM 21:30.734 10 1:05.317 0:00.754 2:04.194 7 47.828
22 613 Chauveau, Jeremy FRA FFM Yamaha 21:32.255 10 1:06.838 0:01.521 2:02.943 8 48.315
23 100 Vincenot – Marchal, Germain FRA FFM Kawasaki 21:34.578 10 1:09.161 0:02.323 2:03.313 7 48.17

24 192 Cuppen, John NED KNMV Yamaha 21:43.761 10 1:18.344 0:09.183 2:06.038 8 47.129
25 79 Corneth, Jaap NED KNMV KTM 21:45.403 10 1:19.986 0:01.642 2:04.491 10 47.714
26 105 Jönsson, Jesper SWE SVEMO Suzuki 21:47.560 10 1:22.143 0:02.157 2:03.576 9 48.068
27 300 Golovkin, Viacheslav RUS MFR Yamaha 21:51.631 10 1:26.214 0:04.071 2:06.104 8 47.104
28 193 Brackman, Wietse BEL FMB Yamaha 21:57.237 10 1:31.820 0:05.606 2:04.244 4 47.809
29 8 Gajser, Tim SLO AMZS TGM 22:00.743 10 1:35.326 0:03.506 2:04.491 9 47.714
30 15 De Waal, Micha – Boy NED KNMV Suzuki 22:09.466 10 1:44.049 0:08.723 2:06.426 9 46.984
31 37 Tamagnini, Nicolo RSM FSM KTM 22:10.612 10 1:45.195 0:01.146 2:07.760 10 46.493
32 32 Tesconi, Erik ITA FMI KTM 22:18.797 10 1:53.380 0:08.185 2:09.514 9 45.864
33 94 Amadio, Leonardo ITA FMI Yamaha 22:19.465 10 1:54.048 0:00.668 2:07.413 8 46.62
34 359 Zinetti, Nicolo ITA FMI KTM 22:21.018 10 1:55.601 0:01.553 2:08.487 4 46.23
35 226 Di Marziantonio, Gianluca ITA FMI Honda 21:02.911 9 1 lap 1 lap 2:15.069 5 43.978
36 47 Jönsson, Pontus SWE SVEMO Suzuki 22:21.477 9 1 lap 1:18.566 2:07.485 3 46.594
37 95 Blömer, Nigel NED KNMV TM 2:41.937 1 9 laps 8 laps 2:21.866 1 41.87
38 195 Justs, Roberts LAT LAMSF Husqvarna 3:47.909 1 9 laps 1:05.972 3:29.136 1 28.403

A voir aussi :

Le commentaires sont fermés.